Flight Track Log - Related Links

Times and Time Zones

All times are in EST time to prevent confusion due to time zone crossing. See the EVA772 flight status page for this flight to view local times or setup timezone preferences in your user account.

Time Position Orientation Groundspeed Altitude Reporting Facility
EST Latitude Longitude Course Direction KTS MPH feet Rate Location/Type
Mon 01:47:00 AM 25.3179 121.5434 358° North  Level Estimated
Mon 01:48:00 AM 25.4007 121.5406 358° North  Level Estimated
Mon 01:49:00 AM 25.4834 121.5378 358° North  Level Estimated
Mon 01:50:00 AM 25.5662 121.5351 358° North  Level Estimated
Mon 01:51:00 AM 25.6490 121.5323 358° North  Level Estimated
Mon 01:52:00 AM 25.7318 121.5295 358° North  Level Estimated
Mon 01:53:00 AM 25.8146 121.5267 358° North  Level Estimated
Mon 01:54:00 AM 25.8974 121.5239 358° North  Level Estimated
Mon 01:55:00 AM 25.9802 121.5211 358° North  Level Estimated
Mon 01:56:00 AM 26.0630 121.5183 358° North  Level Estimated
Mon 01:57:00 AM 26.1458 121.5155 358° North  Level Estimated
Mon 01:58:00 AM 26.2286 121.5127 358° North  Level Estimated
Mon 01:59:00 AM 26.3114 121.5099 358° North  Level Estimated
Mon 02:00:00 AM 26.3943 121.5071 358° North  Level Estimated
Mon 02:01:00 AM 26.4771 121.5043 358° North  Level Estimated
Mon 02:02:00 AM 26.5599 121.5015 358° North  Level Estimated
Mon 02:03:00 AM 26.6427 121.4987 358° North  Level Estimated
Mon 02:04:00 AM 26.7255 121.4958 358° North  Level Estimated
Mon 02:05:00 AM 26.8083 121.4930 358° North  Level Estimated
Mon 02:06:00 AM 26.8911 121.4902 358° North  Level Estimated
Mon 02:07:00 AM 26.9739 121.4873 358° North  Level Estimated
Mon 02:08:00 AM 27.0567 121.4845 358° North  Level Estimated
Mon 02:09:00 AM 27.1395 121.4816 358° North  Level Estimated
Mon 02:10:00 AM 27.2222 121.4788 358° North  Level Estimated
Mon 02:11:00 AM 27.3050 121.4759 358° North  Level Estimated
Mon 02:12:00 AM 27.3878 121.4731 358° North  Level Estimated
Mon 02:13:00 AM 27.4706 121.4702 358° North  Level Estimated
Mon 02:14:00 AM 27.5534 121.4673 358° North  Level Estimated
Mon 02:15:00 AM 27.6362 121.4644 358° North  Level Estimated
Mon 02:16:00 AM 27.7190 121.4616 358° North  Level Estimated
Mon 02:17:00 AM 27.8018 121.4587 358° North  Level Estimated
Mon 02:18:00 AM 27.8846 121.4558 358° North  Level Estimated
Mon 02:19:00 AM 27.9674 121.4529 358° North  Level Estimated
Mon 02:20:00 AM 28.0502 121.4500 358° North  Level Estimated
Mon 02:21:00 AM 28.1331 121.4471 358° North  Level Estimated
Mon 02:22:00 AM 28.2159 121.4442 358° North  Level Estimated
Mon 02:23:00 AM 28.2987 121.4413 358° North  Level Estimated
Mon 02:24:00 AM 28.3815 121.4384 358° North  Level Estimated
Mon 02:25:00 AM 28.4643 121.4354 358° North  Level Estimated
Mon 02:26:00 AM 28.5471 121.4325 358° North  Level Estimated
Mon 02:27:00 AM 28.6299 121.4296 358° North  Level Estimated
Mon 02:28:00 AM 28.7127 121.4267 358° North  Level Estimated
Mon 02:29:00 AM 28.7955 121.4237 358° North  Level Estimated
Mon 02:30:00 AM 28.8783 121.4208 358° North  Level Estimated
Mon 02:31:00 AM 28.9611 121.4178 358° North  Level Estimated
Mon 02:32:00 AM 29.0438 121.4149 358° North  Level Estimated
Mon 02:33:00 AM 29.1266 121.4119 358° North  Level Estimated
Mon 02:34:00 AM 29.2094 121.4090 358° North  Level Estimated
Mon 02:35:00 AM 29.2922 121.4060 358° North  Level Estimated
Mon 02:36:00 AM 29.3750 121.4030 358° North  Level Estimated
Mon 02:37:00 AM 29.4578 121.4000 358° North  Level Estimated
Mon 02:38:00 AM 29.5406 121.3971 358° North  Level Estimated
Mon 02:39:00 AM 29.6234 121.3941 358° North  Level Estimated
Mon 02:40:00 AM 29.7062 121.3911 358° North  Level Estimated
Mon 02:41:00 AM 29.7890 121.3881 358° North  Level Estimated
Mon 02:42:00 AM 29.8718 121.3851 358° North  Level Estimated
Mon 02:43:00 AM 29.9547 121.3821 358° North  Level Estimated
Mon 02:44:00 AM 30.0375 121.3791 358° North  Level Estimated
Mon 02:45:00 AM 30.1203 121.3760 358° North  Level Estimated
Mon 02:46:00 AM 30.2031 121.3730 358° North  Level Estimated
Mon 02:47:00 AM 30.2859 121.3700 358° North  Level Estimated
Mon 02:48:00 AM 30.3687 121.3670 358° North  Level Estimated
Mon 02:49:00 AM 30.4515 121.3639 358° North  Level Estimated
Mon 02:50:00 AM 30.5343 121.3609 358° North  Level Estimated
Mon 02:51:00 AM 30.6171 121.3578 358° North  Level Estimated
Mon 02:52:00 AM 30.6999 121.3548 358° North  Level Estimated
Mon 02:53:00 AM 30.7826 121.3517 358° North  Level Estimated
Mon 02:54:00 AM 30.8654 121.3487 358° North  Level Estimated
Mon 02:55:00 AM 30.9482 121.3456 358° North  Level Estimated
Mon 02:56:00 AM 31.0310 121.3425 358° North  Level Estimated
Mon 02:57:00 AM 31.1138 121.3394 358° North  Level Estimated
Mon 02:58:00 AM 31.1966 121.3364 358° North  Level Estimated
Mon 02:59:00 AM 31.1979 121.3363 358° North  Level Estimated
Mon 03:00:00 AM 31.1979 121.3363 350° North  Level Estimated
Mon 03:01:00 AM 31.1979 121.3363 350° North  Level Estimated
Mon 03:02:00 AM 31.1979 121.3363 350° North  Level Estimated
Mon 03:03:00 AM 31.1979 121.3363 350° North  Level Estimated
Mon 03:04:00 AM 31.1979 121.3363 350° North  Level Estimated
Mon 03:05:00 AM 31.1979 121.3363 350° North  Level Estimated
Mon 03:06:00 AM 31.1979 121.3363 350° North  Level Estimated
Mon 03:07:00 AM 31.1979 121.3363 350° North  Level Estimated
Mon 03:08:00 AM 31.1979 121.3363 350° North  Level Estimated
Mon 03:09:00 AM 31.1979 121.3363 350° North  Level Estimated
Mon 03:10:00 AM 31.1979 121.3363 350° North  Level Estimated
Mon 03:11:00 AM 31.1979 121.3363 350° North  Level Estimated
Mon 03:12:00 AM 31.1979 121.3363 350° North  Level Estimated
Mon 03:13:00 AM 31.1979 121.3363 350° North  Level Estimated
Mon 03:14:00 AM 31.1979 121.3363 350° North  Level Estimated

Login

Don't have an account? Register now (free) for customized features, flight alerts, and more!